createdAt,value
2018-09-15T00:01:45.378Z,13.17
2018-09-15T00:04:19.927Z,12.96
2018-09-15T00:06:54.757Z,12.84
2018-09-15T00:09:29.767Z,12.70
2018-09-15T00:12:04.438Z,12.58
2018-09-15T00:14:39.090Z,12.48
2018-09-15T00:17:14.012Z,12.38
2018-09-15T00:19:48.652Z,12.34
2018-09-15T00:22:23.364Z,12.28
2018-09-15T00:24:57.902Z,12.22
2018-09-15T00:27:32.336Z,12.15
2018-09-15T00:30:07.031Z,12.10
2018-09-15T00:32:41.606Z,12.08
2018-09-15T00:35:16.314Z,12.11
2018-09-15T00:37:51.200Z,12.10
2018-09-15T00:40:25.877Z,12.11
2018-09-15T00:43:00.692Z,12.05
2018-09-15T00:45:35.177Z,12.05
2018-09-15T00:48:09.928Z,11.96
2018-09-15T00:50:44.565Z,12.02
2018-09-15T00:53:19.125Z,12.01
2018-09-15T00:55:53.968Z,12.02
2018-09-15T00:58:28.839Z,12.13
2018-09-15T01:01:03.536Z,12.05
2018-09-15T01:03:38.084Z,12.03
2018-09-15T01:06:12.706Z,12.07
2018-09-15T01:08:47.315Z,12.16
2018-09-15T01:11:22.113Z,12.12
2018-09-15T01:13:57.383Z,12.12
2018-09-15T01:16:32.006Z,12.07
2018-09-15T01:19:06.882Z,12.09
2018-09-15T01:21:41.605Z,12.03
2018-09-15T01:24:16.064Z,12.09
2018-09-15T01:26:50.640Z,12.07
2018-09-15T01:29:25.240Z,12.15
2018-09-15T01:31:59.753Z,12.17
2018-09-15T01:34:34.169Z,12.09
2018-09-15T01:37:08.760Z,12.02
2018-09-15T01:39:49.283Z,11.94
2018-09-15T01:42:24.213Z,11.87
2018-09-15T01:44:58.767Z,11.79
2018-09-15T01:47:33.335Z,11.79
2018-09-15T01:50:08.033Z,11.75
2018-09-15T01:52:42.589Z,11.70
2018-09-15T01:55:17.824Z,11.65
2018-09-15T01:57:52.524Z,11.57
2018-09-15T02:00:26.981Z,11.50
2018-09-15T02:03:01.614Z,11.41
2018-09-15T02:05:36.936Z,11.47
2018-09-15T02:08:11.574Z,11.43
2018-09-15T02:10:46.092Z,11.45
2018-09-15T02:13:20.964Z,11.48
2018-09-15T02:15:55.744Z,11.39
2018-09-15T02:18:30.233Z,11.32
2018-09-15T02:21:04.738Z,11.27
2018-09-15T02:23:39.205Z,11.35
2018-09-15T02:26:14.068Z,11.31
2018-09-15T02:29:05.725Z,11.34
2018-09-15T02:31:41.070Z,11.34
2018-09-15T02:34:32.601Z,11.37
2018-09-15T02:37:07.626Z,11.32
2018-09-15T02:39:41.996Z,11.29
2018-09-15T02:42:16.443Z,11.26
2018-09-15T02:44:51.152Z,11.29
2018-09-15T02:47:25.618Z,11.20
2018-09-15T02:50:00.044Z,11.12
2018-09-15T02:52:34.549Z,11.00
2018-09-15T02:55:09.321Z,11.09
2018-09-15T02:57:43.977Z,11.04
2018-09-15T03:00:18.588Z,10.97
2018-09-15T03:02:53.394Z,10.94
2018-09-15T03:05:28.053Z,10.96
2018-09-15T03:08:02.600Z,11.01
2018-09-15T03:10:37.376Z,10.99
2018-09-15T03:13:12.283Z,11.02
2018-09-15T03:15:46.942Z,11.04
2018-09-15T03:18:21.795Z,11.10
2018-09-15T03:20:56.253Z,11.13
2018-09-15T03:23:30.656Z,11.26
2018-09-15T03:26:05.288Z,11.33
2018-09-15T03:28:39.845Z,11.30
2018-09-15T03:31:14.466Z,11.33
2018-09-15T03:33:49.240Z,11.34
2018-09-15T03:36:23.820Z,11.38
2018-09-15T03:38:59.646Z,11.40
2018-09-15T03:41:34.176Z,11.46
2018-09-15T03:44:08.793Z,11.48
2018-09-15T03:46:43.257Z,11.50
2018-09-15T03:49:17.647Z,11.53
2018-09-15T03:51:52.224Z,11.55
2018-09-15T03:54:26.868Z,11.63
2018-09-15T03:57:01.211Z,11.58
2018-09-15T03:59:35.756Z,11.59
2018-09-15T04:02:10.423Z,11.59
2018-09-15T04:04:45.117Z,11.61
2018-09-15T04:07:19.777Z,11.63
2018-09-15T04:09:54.436Z,11.63
2018-09-15T04:12:28.991Z,11.64
2018-09-15T04:15:04.076Z,11.68
2018-09-15T04:17:38.448Z,11.66
2018-09-15T04:20:13.000Z,11.66
2018-09-15T04:22:47.617Z,11.64
2018-09-15T04:25:22.265Z,11.64
2018-09-15T04:27:56.800Z,11.59
2018-09-15T04:30:31.260Z,11.58
2018-09-15T04:33:05.760Z,11.58
2018-09-15T04:35:40.469Z,11.61
2018-09-15T04:38:15.103Z,11.66
2018-09-15T04:40:49.780Z,11.74
2018-09-15T04:43:24.393Z,11.75
2018-09-15T04:45:59.009Z,11.69
2018-09-15T04:48:33.685Z,11.68
2018-09-15T04:51:08.305Z,11.70
2018-09-15T04:53:42.984Z,11.70
2018-09-15T04:56:17.429Z,11.72
2018-09-15T04:58:52.024Z,11.72
2018-09-15T05:01:26.479Z,11.77
2018-09-15T05:04:01.124Z,11.78
2018-09-15T05:06:35.714Z,11.79
2018-09-15T05:09:11.796Z,11.85
2018-09-15T05:11:46.413Z,11.91
2018-09-15T05:14:21.051Z,11.96
2018-09-15T05:16:55.491Z,12.00
2018-09-15T05:19:30.109Z,11.97
2018-09-15T05:22:04.668Z,11.95
2018-09-15T05:24:39.491Z,11.95
2018-09-15T05:27:14.177Z,11.99
2018-09-15T05:29:48.797Z,11.97
2018-09-15T05:32:23.489Z,12.01
2018-09-15T05:34:58.216Z,11.92
2018-09-15T05:37:32.971Z,12.03
2018-09-15T05:40:07.877Z,12.03
2018-09-15T05:42:42.474Z,12.08
2018-09-15T05:45:17.170Z,12.06
2018-09-15T05:47:51.771Z,12.06
2018-09-15T05:50:26.194Z,12.05
2018-09-15T05:53:00.942Z,12.00
2018-09-15T05:55:35.476Z,11.93
2018-09-15T05:58:10.264Z,11.93
2018-09-15T06:00:44.873Z,12.02
2018-09-15T06:03:19.450Z,12.15
2018-09-15T06:05:54.073Z,12.39
2018-09-15T06:08:28.602Z,12.58
2018-09-15T06:11:03.488Z,12.62
2018-09-15T06:13:38.063Z,12.56
2018-09-15T06:16:12.573Z,12.51
2018-09-15T06:18:47.045Z,12.59
2018-09-15T06:21:21.880Z,12.66
2018-09-15T06:23:56.533Z,12.77
2018-09-15T06:26:32.097Z,12.98
2018-09-15T06:29:06.844Z,13.45
2018-09-15T06:31:41.453Z,13.92
2018-09-15T06:34:16.125Z,14.51
2018-09-15T06:36:51.075Z,14.51
2018-09-15T06:39:25.925Z,14.55
2018-09-15T06:42:00.642Z,13.91
2018-09-15T06:44:35.154Z,14.12
2018-09-15T06:47:09.586Z,14.10
2018-09-15T06:49:44.168Z,14.05
2018-09-15T06:52:19.249Z,16.45
2018-09-15T06:54:53.868Z,18.07
2018-09-15T06:57:28.724Z,20.22
2018-09-15T07:00:03.241Z,22.39
2018-09-15T07:02:37.880Z,24.21
2018-09-15T07:05:12.616Z,20.45
2018-09-15T07:07:47.348Z,22.90
2018-09-15T07:10:22.328Z,22.58
2018-09-15T07:12:56.932Z,22.12
2018-09-15T07:15:31.557Z,18.83
2018-09-15T07:18:06.545Z,20.21
2018-09-15T07:20:41.340Z,18.64
2018-09-15T07:23:16.108Z,20.56
2018-09-15T07:25:50.647Z,20.41
2018-09-15T07:28:25.141Z,19.83
2018-09-15T07:31:00.055Z,20.37
2018-09-15T07:33:34.570Z,23.19
2018-09-15T07:36:09.233Z,23.38
2018-09-15T07:38:43.846Z,23.59
2018-09-15T07:41:18.433Z,23.30
2018-09-15T07:43:53.489Z,20.48
2018-09-15T07:46:28.056Z,19.15
2018-09-15T07:49:02.639Z,19.47
2018-09-15T07:51:37.262Z,18.60
2018-09-15T07:54:12.237Z,17.25
2018-09-15T07:56:46.861Z,16.14
2018-09-15T07:59:21.521Z,16.31
2018-09-15T08:01:56.666Z,17.15
2018-09-15T08:04:31.355Z,17.87
2018-09-15T08:07:05.917Z,17.04
2018-09-15T08:09:40.593Z,16.70
2018-09-15T08:12:16.347Z,17.15
2018-09-15T08:14:50.824Z,16.65
2018-09-15T08:17:25.349Z,17.69
2018-09-15T08:19:59.981Z,17.28
2018-09-15T08:22:34.598Z,17.53
2018-09-15T08:25:09.621Z,17.12
2018-09-15T08:27:44.359Z,18.19
2018-09-15T08:30:19.020Z,17.96
2018-09-15T08:32:53.541Z,18.35
2018-09-15T08:35:28.253Z,17.79
2018-09-15T08:38:03.001Z,18.02
2018-09-15T08:40:37.745Z,18.19
2018-09-15T08:43:12.759Z,17.71
2018-09-15T08:45:50.704Z,17.60
2018-09-15T08:48:25.404Z,17.94
2018-09-15T08:51:00.078Z,18.04
2018-09-15T08:53:34.721Z,18.09
2018-09-15T08:56:09.335Z,17.57
2018-09-15T08:58:44.125Z,16.90
2018-09-15T09:01:19.104Z,16.80
2018-09-15T09:03:53.867Z,16.76
2018-09-15T09:06:28.366Z,16.09
2018-09-15T09:09:02.870Z,15.92
2018-09-15T09:11:37.433Z,15.87
2018-09-15T09:14:11.974Z,15.59
2018-09-15T09:16:46.505Z,15.42
2018-09-15T09:19:21.089Z,15.39
2018-09-15T09:21:55.989Z,15.67
2018-09-15T09:24:30.448Z,15.47
2018-09-15T09:27:05.021Z,15.60
2018-09-15T09:29:39.557Z,15.68
2018-09-15T09:32:14.103Z,16.24
2018-09-15T09:34:48.629Z,16.59
2018-09-15T09:37:23.263Z,17.30
2018-09-15T09:39:57.923Z,17.81
2018-09-15T09:42:32.459Z,18.14
2018-09-15T09:45:08.022Z,18.91
2018-09-15T09:47:42.862Z,18.69
2018-09-15T09:50:17.266Z,17.82
2018-09-15T09:52:51.926Z,18.09
2018-09-15T09:55:26.529Z,17.15
2018-09-15T09:58:01.235Z,17.11
2018-09-15T10:00:41.193Z,17.17
2018-09-15T10:03:15.771Z,17.10
2018-09-15T10:05:50.580Z,17.41
2018-09-15T10:08:25.269Z,17.55
2018-09-15T10:10:59.909Z,18.35
2018-09-15T10:13:34.477Z,18.49
2018-09-15T10:16:09.261Z,18.50
2018-09-15T10:18:43.911Z,18.09
2018-09-15T10:21:18.465Z,17.89
2018-09-15T10:23:52.956Z,17.20
2018-09-15T10:26:27.429Z,17.03
2018-09-15T10:29:02.024Z,17.08
2018-09-15T10:31:37.152Z,17.31
2018-09-15T10:34:11.574Z,16.99
2018-09-15T10:36:46.189Z,17.21
2018-09-15T10:39:20.801Z,17.29
2018-09-15T10:41:55.540Z,17.48
2018-09-15T10:44:30.014Z,17.47
2018-09-15T10:47:04.596Z,17.39
2018-09-15T10:49:39.147Z,17.31
2018-09-15T10:52:13.569Z,17.52
2018-09-15T10:54:48.284Z,17.62
2018-09-15T10:57:22.965Z,18.08
2018-09-15T10:59:57.977Z,19.24
2018-09-15T11:02:32.628Z,19.03
2018-09-15T11:05:07.205Z,18.74
2018-09-15T11:07:41.820Z,18.52
2018-09-15T11:10:16.517Z,18.15
2018-09-15T11:12:50.980Z,18.06
2018-09-15T11:15:25.501Z,18.13
2018-09-15T11:18:00.103Z,18.26
2018-09-15T11:20:34.709Z,18.22
2018-09-15T11:23:09.351Z,18.55
2018-09-15T11:25:43.784Z,18.66
2018-09-15T11:28:18.684Z,19.11
2018-09-15T11:30:53.432Z,18.57
2018-09-15T11:33:28.333Z,18.57
2018-09-15T11:36:02.873Z,18.94
2018-09-15T11:38:37.453Z,19.07
2018-09-15T11:41:12.180Z,18.74
2018-09-15T11:43:46.780Z,19.07
2018-09-15T11:46:21.391Z,18.94
2018-09-15T11:48:56.178Z,18.84
2018-09-15T11:51:30.852Z,19.17
2018-09-15T11:54:05.384Z,19.11
2018-09-15T11:56:40.302Z,19.39
2018-09-15T11:59:14.872Z,18.77
2018-09-15T12:01:49.850Z,18.70
2018-09-15T12:04:24.432Z,18.44
2018-09-15T12:06:58.982Z,18.76
2018-09-15T12:09:33.729Z,18.73
2018-09-15T12:12:08.288Z,18.41
2018-09-15T12:14:43.344Z,18.49
2018-09-15T12:17:17.677Z,18.58
2018-09-15T12:19:52.117Z,18.88
2018-09-15T12:22:27.129Z,19.18
2018-09-15T12:25:01.702Z,19.45
2018-09-15T12:27:36.209Z,19.79
2018-09-15T12:30:10.825Z,19.84
2018-09-15T12:32:45.492Z,20.06
2018-09-15T12:35:20.093Z,19.96
2018-09-15T12:37:54.567Z,20.07
2018-09-15T12:40:29.491Z,19.49
2018-09-15T12:43:04.155Z,19.69
2018-09-15T12:45:38.749Z,19.42
2018-09-15T12:48:13.274Z,19.81
2018-09-15T12:50:48.099Z,19.76
2018-09-15T12:53:22.597Z,20.23
2018-09-15T12:55:57.309Z,20.29
2018-09-15T12:58:31.828Z,20.22
2018-09-15T13:01:07.034Z,19.98
2018-09-15T13:03:41.601Z,19.82
2018-09-15T13:06:16.094Z,19.84
2018-09-15T13:08:50.576Z,19.72
2018-09-15T13:11:25.120Z,19.85
2018-09-15T13:13:59.884Z,19.90
2018-09-15T13:16:34.446Z,20.06
2018-09-15T13:19:08.996Z,20.20
2018-09-15T13:21:43.661Z,20.31
2018-09-15T13:24:22.178Z,20.16
2018-09-15T13:26:56.788Z,19.99
2018-09-15T13:29:31.400Z,20.01
2018-09-15T13:32:06.073Z,19.95
2018-09-15T13:34:40.566Z,19.92
2018-09-15T13:37:15.015Z,20.05
2018-09-15T13:39:49.598Z,20.27
2018-09-15T13:42:24.133Z,20.18
2018-09-15T13:44:59.107Z,20.28
2018-09-15T13:47:33.675Z,20.32
2018-09-15T13:50:08.213Z,20.05
2018-09-15T13:52:42.632Z,19.99
2018-09-15T13:55:17.123Z,20.11
2018-09-15T13:57:51.593Z,19.98
2018-09-15T14:00:26.057Z,19.74
2018-09-15T14:03:00.686Z,19.96
2018-09-15T14:05:35.376Z,19.74
2018-09-15T14:08:09.984Z,19.67
2018-09-15T14:10:44.643Z,19.38
2018-09-15T14:13:19.209Z,19.27
2018-09-15T14:15:53.817Z,19.08
2018-09-15T14:18:28.210Z,18.83
2018-09-15T14:21:02.773Z,18.81
2018-09-15T14:23:37.382Z,18.45
2018-09-15T14:26:12.269Z,18.42
2018-09-15T14:28:47.193Z,18.31
2018-09-15T14:31:21.676Z,18.23
2018-09-15T14:33:56.121Z,18.25
2018-09-15T14:36:31.093Z,18.33
2018-09-15T14:39:07.913Z,18.43
2018-09-15T14:41:42.737Z,18.49
2018-09-15T14:44:17.332Z,18.54
2018-09-15T14:46:52.002Z,18.53
2018-09-15T14:49:26.544Z,18.44
2018-09-15T14:52:01.230Z,18.39
2018-09-15T14:54:35.782Z,18.33
2018-09-15T14:57:10.389Z,18.22
2018-09-15T14:59:45.256Z,18.26
2018-09-15T15:02:19.845Z,18.22
2018-09-15T15:04:54.369Z,18.44
2018-09-15T15:07:28.922Z,18.72
2018-09-15T15:10:03.544Z,19.16
2018-09-15T15:12:38.124Z,19.26
2018-09-15T15:15:12.672Z,19.38
2018-09-15T15:17:47.344Z,19.42
2018-09-15T15:20:21.937Z,19.38
2018-09-15T15:22:56.664Z,19.57
2018-09-15T15:25:31.434Z,19.70
2018-09-15T15:28:06.525Z,19.80
2018-09-15T15:30:40.987Z,19.74
2018-09-15T15:33:15.588Z,19.49
2018-09-15T15:35:50.266Z,19.39
2018-09-15T15:38:25.169Z,19.09
2018-09-15T15:41:00.000Z,19.14
2018-09-15T15:43:34.663Z,18.90
2018-09-15T15:46:09.009Z,18.61
2018-09-15T15:48:43.422Z,18.89
2018-09-15T15:51:17.958Z,19.06
2018-09-15T15:53:52.839Z,19.56
2018-09-15T15:56:27.576Z,19.92
2018-09-15T15:59:02.334Z,20.40
2018-09-15T16:01:36.874Z,20.17
2018-09-15T16:04:11.432Z,19.82
2018-09-15T16:06:46.013Z,19.46
2018-09-15T16:09:20.777Z,19.12
2018-09-15T16:11:55.411Z,18.80
2018-09-15T16:14:30.029Z,18.59
2018-09-15T16:17:04.719Z,18.30
2018-09-15T16:19:39.626Z,18.14
2018-09-15T16:22:14.196Z,18.11
2018-09-15T16:24:48.774Z,17.98
2018-09-15T16:27:23.292Z,17.90
2018-09-15T16:29:57.825Z,17.91
2018-09-15T16:32:32.434Z,17.86
2018-09-15T16:35:07.069Z,17.84
2018-09-15T16:37:41.712Z,17.76
2018-09-15T16:40:16.474Z,17.72
2018-09-15T16:42:51.353Z,17.58
2018-09-15T16:45:25.988Z,17.40
2018-09-15T16:48:00.864Z,17.32
2018-09-15T16:50:35.555Z,17.21
2018-09-15T16:53:10.720Z,17.10
2018-09-15T16:55:45.400Z,17.07
2018-09-15T16:58:19.953Z,17.04
2018-09-15T17:00:54.406Z,17.05
2018-09-15T17:03:29.672Z,16.98
2018-09-15T17:06:04.148Z,16.79
2018-09-15T17:08:39.032Z,16.77
2018-09-15T17:11:13.573Z,16.77
2018-09-15T17:13:48.433Z,16.79
2018-09-15T17:16:22.958Z,16.68
2018-09-15T17:18:57.426Z,16.56
2018-09-15T17:21:32.041Z,16.55
2018-09-15T17:24:07.305Z,16.61
2018-09-15T17:26:42.297Z,16.55
2018-09-15T17:29:16.962Z,16.40
2018-09-15T17:31:51.529Z,16.36
2018-09-15T17:34:26.097Z,16.14
2018-09-15T17:37:00.804Z,15.46
2018-09-15T17:39:35.349Z,15.20
2018-09-15T17:42:10.033Z,15.25
2018-09-15T17:44:44.504Z,14.88
2018-09-15T17:47:19.153Z,14.73
2018-09-15T17:49:53.769Z,14.60
2018-09-15T17:52:28.765Z,14.54
2018-09-15T17:55:03.666Z,14.46
2018-09-15T17:57:38.080Z,14.40
2018-09-15T18:00:13.066Z,14.38
2018-09-15T18:02:47.493Z,14.33
2018-09-15T18:05:22.048Z,14.28
2018-09-15T18:07:56.868Z,14.25
2018-09-15T18:10:31.864Z,14.20
2018-09-15T18:13:06.416Z,14.13
2018-09-15T18:15:41.033Z,14.07
2018-09-15T18:18:15.587Z,14.28
2018-09-15T18:20:50.015Z,14.04
2018-09-15T18:23:24.932Z,13.91
2018-09-15T18:25:59.464Z,13.85
2018-09-15T18:28:34.137Z,13.79
2018-09-15T18:31:08.782Z,13.78
2018-09-15T18:33:43.379Z,13.70
2018-09-15T18:36:18.448Z,13.64
2018-09-15T18:38:53.155Z,13.63
2018-09-15T18:41:28.045Z,13.63
2018-09-15T18:44:03.125Z,13.60
2018-09-15T18:46:37.905Z,13.57
2018-09-15T18:49:12.517Z,13.53
2018-09-15T18:51:47.217Z,13.52
2018-09-15T18:54:21.812Z,13.50
2018-09-15T18:56:56.416Z,13.48
2018-09-15T18:59:31.376Z,13.47
2018-09-15T19:02:06.281Z,13.53
2018-09-15T19:04:40.891Z,13.46
2018-09-15T19:07:15.852Z,13.47
2018-09-15T19:09:50.801Z,13.52
2018-09-15T19:12:25.485Z,13.88
2018-09-15T19:15:00.609Z,13.94
2018-09-15T19:17:35.297Z,13.92
2018-09-15T19:20:09.933Z,13.94
2018-09-15T19:22:50.268Z,13.97
2018-09-15T19:25:24.799Z,13.95
2018-09-15T19:27:59.626Z,13.91
2018-09-15T19:30:34.144Z,13.92
2018-09-15T19:33:08.687Z,13.87
2018-09-15T19:35:43.297Z,13.87
2018-09-15T19:38:17.825Z,13.86
2018-09-15T19:40:52.483Z,13.88
2018-09-15T19:43:27.076Z,13.91
2018-09-15T19:46:01.668Z,13.97
2018-09-15T19:48:36.286Z,14.01
2018-09-15T19:51:10.904Z,14.10
2018-09-15T19:53:45.434Z,14.11
2018-09-15T19:56:19.997Z,14.12
2018-09-15T19:58:54.572Z,14.08
2018-09-15T20:01:29.448Z,14.03
2018-09-15T20:04:04.101Z,14.02
2018-09-15T20:06:38.900Z,13.98
2018-09-15T20:09:13.412Z,14.04
2018-09-15T20:11:47.757Z,14.16
2018-09-15T20:14:22.356Z,14.18
2018-09-15T20:16:55.833Z,14.16
2018-09-15T20:19:29.343Z,14.13
2018-09-15T20:22:04.432Z,14.10
2018-09-15T20:24:39.250Z,14.04
2018-09-15T20:27:13.921Z,13.80
2018-09-15T20:29:48.499Z,13.59
2018-09-15T20:32:23.177Z,13.65
2018-09-15T20:34:57.704Z,13.73
2018-09-15T20:37:32.442Z,13.71
2018-09-15T20:40:07.574Z,13.74
2018-09-15T20:42:42.098Z,13.78
2018-09-15T20:45:16.566Z,13.83
2018-09-15T20:47:51.360Z,13.88
2018-09-15T20:50:26.054Z,13.87
2018-09-15T20:53:00.619Z,13.85
2018-09-15T20:55:35.153Z,13.82
2018-09-15T20:58:30.615Z,13.78
2018-09-15T21:01:05.228Z,13.74
2018-09-15T21:03:39.822Z,13.77
2018-09-15T21:06:14.616Z,13.76
2018-09-15T21:08:49.142Z,13.64
2018-09-15T21:11:23.708Z,13.59
2018-09-15T21:13:58.238Z,13.51
2018-09-15T21:16:32.860Z,13.46
2018-09-15T21:19:07.411Z,13.39
2018-09-15T21:21:42.076Z,13.27
2018-09-15T21:24:16.644Z,13.34
2018-09-15T21:26:51.274Z,13.36
2018-09-15T21:29:25.906Z,13.36
2018-09-15T21:32:00.622Z,13.41
2018-09-15T21:34:35.253Z,13.59
2018-09-15T21:37:10.181Z,13.71
2018-09-15T21:39:44.664Z,13.66
2018-09-15T21:42:19.138Z,13.69
2018-09-15T21:44:53.669Z,13.78
2018-09-15T21:47:28.168Z,13.74
2018-09-15T21:50:02.771Z,13.70
2018-09-15T21:52:37.372Z,13.65
2018-09-15T21:55:11.815Z,13.64
2018-09-15T21:57:46.537Z,13.68
2018-09-15T22:00:21.308Z,13.63
2018-09-15T22:02:55.929Z,13.58
2018-09-15T22:05:30.607Z,13.58
2018-09-15T22:08:05.221Z,13.50
2018-09-15T22:10:39.856Z,13.42
2018-09-15T22:13:14.445Z,13.40
2018-09-15T22:15:48.915Z,13.48
2018-09-15T22:18:23.462Z,13.50
2018-09-15T22:20:58.217Z,13.53
2018-09-15T22:23:33.038Z,13.49
2018-09-15T22:26:08.081Z,13.49
2018-09-15T22:28:42.654Z,13.48
2018-09-15T22:31:17.223Z,13.52
2018-09-15T22:33:51.854Z,13.51
2018-09-15T22:36:26.405Z,13.51
2018-09-15T22:39:00.883Z,13.49
2018-09-15T22:41:35.501Z,13.51
2018-09-15T22:44:10.055Z,13.51
2018-09-15T22:46:44.708Z,13.51
2018-09-15T22:49:19.406Z,13.50
2018-09-15T22:51:54.051Z,13.47
2018-09-15T22:54:28.677Z,13.50
2018-09-15T22:57:03.217Z,13.45
2018-09-15T22:59:37.839Z,13.45
2018-09-15T23:02:12.790Z,13.46
2018-09-15T23:04:47.346Z,13.43
2018-09-15T23:07:21.967Z,13.36
2018-09-15T23:09:56.672Z,13.34
2018-09-15T23:12:31.209Z,13.29
2018-09-15T23:15:05.809Z,13.22
2018-09-15T23:17:40.397Z,13.20
2018-09-15T23:20:15.055Z,13.13
2018-09-15T23:22:49.628Z,13.05
2018-09-15T23:25:24.351Z,13.00
2018-09-15T23:27:58.857Z,13.01
2018-09-15T23:30:33.413Z,13.04
2018-09-15T23:33:08.062Z,13.04
2018-09-15T23:35:42.692Z,13.10
2018-09-15T23:38:17.371Z,13.13
2018-09-15T23:40:52.265Z,13.13
2018-09-15T23:43:26.874Z,13.12
2018-09-15T23:46:01.443Z,13.12
2018-09-15T23:48:35.976Z,13.06
2018-09-15T23:51:10.370Z,13.05
2018-09-15T23:53:44.779Z,13.07
2018-09-15T23:56:19.316Z,12.99
2018-09-15T23:58:53.897Z,12.97
